createdAt,value
2018-12-25T00:01:14.325Z,4.10
2018-12-25T00:04:40.453Z,4.10
2018-12-25T00:08:06.510Z,4.00
2018-12-25T00:11:34.950Z,4.00
2018-12-25T00:15:00.678Z,4.00
2018-12-25T00:18:26.896Z,4.10
2018-12-25T00:21:53.211Z,4.00
2018-12-25T00:25:21.367Z,4.10
2018-12-25T00:28:47.720Z,4.10
2018-12-25T00:32:18.398Z,4.10
2018-12-25T00:35:44.374Z,4.00
2018-12-25T00:39:10.365Z,4.00
2018-12-25T00:42:36.601Z,4.00
2018-12-25T00:46:02.945Z,4.00
2018-12-25T00:49:30.323Z,4.00
2018-12-25T00:52:56.838Z,4.00
2018-12-25T00:56:22.892Z,4.00
2018-12-25T00:59:48.755Z,4.00
2018-12-25T01:03:17.045Z,4.00
2018-12-25T01:06:42.672Z,4.00
2018-12-25T01:10:08.522Z,4.10
2018-12-25T01:13:34.454Z,4.10
2018-12-25T01:17:01.278Z,4.10
2018-12-25T01:20:27.206Z,4.10
2018-12-25T01:23:53.206Z,4.10
2018-12-25T01:27:22.208Z,4.10
2018-12-25T01:30:48.409Z,4.10
2018-12-25T01:34:14.579Z,4.10
2018-12-25T01:37:40.702Z,4.10
2018-12-25T01:41:06.509Z,4.10
2018-12-25T01:44:35.166Z,4.20
2018-12-25T01:48:00.805Z,4.10
2018-12-25T01:51:26.390Z,4.10
2018-12-25T01:54:51.912Z,4.10
2018-12-25T01:58:17.491Z,4.10
2018-12-25T02:01:43.408Z,4.10
2018-12-25T02:05:08.988Z,4.00
2018-12-25T02:08:34.661Z,4.10
2018-12-25T02:12:00.300Z,4.00
2018-12-25T02:15:25.899Z,4.00
2018-12-25T02:18:51.459Z,4.00
2018-12-25T02:22:17.011Z,4.10
2018-12-25T02:25:42.864Z,4.00
2018-12-25T02:29:08.465Z,4.10
2018-12-25T02:32:34.332Z,4.00
2018-12-25T02:35:59.963Z,4.00
2018-12-25T02:39:25.562Z,4.00
2018-12-25T02:42:51.403Z,4.10
2018-12-25T02:46:16.954Z,4.10
2018-12-25T02:49:50.203Z,4.10
2018-12-25T02:53:09.835Z,4.10
2018-12-25T02:56:35.441Z,4.10
2018-12-25T03:00:01.299Z,4.10
2018-12-25T03:03:27.116Z,4.10
2018-12-25T03:06:52.726Z,4.10
2018-12-25T03:10:18.305Z,4.10
2018-12-25T03:13:44.183Z,4.10
2018-12-25T03:17:09.740Z,4.10
2018-12-25T03:20:35.395Z,4.20
2018-12-25T03:24:01.050Z,4.20
2018-12-25T03:27:26.925Z,4.20
2018-12-25T03:30:52.472Z,4.10
2018-12-25T03:34:18.113Z,4.20
2018-12-25T03:37:43.911Z,4.20
2018-12-25T03:41:10.037Z,4.20
2018-12-25T03:44:35.613Z,4.30
2018-12-25T03:48:01.149Z,4.30
2018-12-25T03:51:26.715Z,4.30
2018-12-25T03:54:52.322Z,4.40
2018-12-25T03:58:17.905Z,4.50
2018-12-25T04:01:43.494Z,4.50
2018-12-25T04:05:09.068Z,4.50
2018-12-25T04:08:34.630Z,4.50
2018-12-25T04:12:00.180Z,4.50
2018-12-25T04:15:25.733Z,4.40
2018-12-25T04:18:51.343Z,4.50
2018-12-25T04:22:16.914Z,4.50
2018-12-25T04:25:42.514Z,4.40
2018-12-25T04:29:08.298Z,4.40
2018-12-25T04:32:33.930Z,4.40
2018-12-25T04:35:59.573Z,4.40
2018-12-25T04:39:25.278Z,4.40
2018-12-25T04:42:50.798Z,4.50
2018-12-25T04:46:16.368Z,4.50
2018-12-25T04:49:42.286Z,4.50
2018-12-25T04:53:07.861Z,4.50
2018-12-25T04:56:33.448Z,4.40
2018-12-25T04:59:59.013Z,4.50
2018-12-25T05:03:24.625Z,4.50
2018-12-25T05:06:50.222Z,4.50
2018-12-25T05:10:15.783Z,4.50
2018-12-25T05:13:41.608Z,4.50
2018-12-25T05:17:07.256Z,4.50
2018-12-25T05:20:37.856Z,4.40
2018-12-25T05:24:00.455Z,4.40
2018-12-25T05:27:26.019Z,4.40
2018-12-25T05:30:51.610Z,4.50
2018-12-25T05:34:17.174Z,4.50
2018-12-25T05:37:42.718Z,4.50
2018-12-25T05:41:08.278Z,4.40
2018-12-25T05:44:33.948Z,4.40
2018-12-25T05:48:01.622Z,4.40
2018-12-25T05:51:27.189Z,4.40
2018-12-25T05:54:52.743Z,4.30
2018-12-25T05:58:18.303Z,4.30
2018-12-25T06:01:43.858Z,4.30
2018-12-25T06:05:09.423Z,4.40
2018-12-25T06:08:34.965Z,4.30
2018-12-25T06:12:00.507Z,4.30
2018-12-25T06:15:26.084Z,4.30
2018-12-25T06:18:51.601Z,4.30
2018-12-25T06:22:17.235Z,4.30
2018-12-25T06:25:42.811Z,4.30
2018-12-25T06:29:08.382Z,4.30
2018-12-25T06:32:34.257Z,4.30
2018-12-25T06:35:59.830Z,4.40
2018-12-25T06:39:25.393Z,4.40
2018-12-25T06:42:50.989Z,4.40
2018-12-25T06:46:16.831Z,4.40
2018-12-25T06:49:42.447Z,4.30
2018-12-25T06:53:08.056Z,4.30
2018-12-25T06:56:33.654Z,4.30
2018-12-25T06:59:59.223Z,4.30
2018-12-25T07:03:24.753Z,4.30
2018-12-25T07:06:50.589Z,4.30
2018-12-25T07:10:16.365Z,4.30
2018-12-25T07:13:41.969Z,4.30
2018-12-25T07:17:07.675Z,4.20
2018-12-25T07:20:33.315Z,4.30
2018-12-25T07:23:58.902Z,4.30
2018-12-25T07:27:24.812Z,4.30
2018-12-25T07:30:50.573Z,4.30
2018-12-25T07:34:16.514Z,4.30
2018-12-25T07:37:42.053Z,4.30
2018-12-25T07:41:07.818Z,4.30
2018-12-25T07:44:33.486Z,4.30
2018-12-25T07:47:59.166Z,4.30
2018-12-25T07:51:24.878Z,4.30
2018-12-25T07:54:50.545Z,4.40
2018-12-25T07:58:16.235Z,4.40
2018-12-25T08:01:42.117Z,4.40
2018-12-25T08:05:08.011Z,4.40
2018-12-25T08:08:33.650Z,4.50
2018-12-25T08:11:59.262Z,4.40
2018-12-25T08:15:24.824Z,4.50
2018-12-25T08:18:50.415Z,4.40
2018-12-25T08:22:15.973Z,4.40
2018-12-25T08:25:44.348Z,4.40
2018-12-25T08:29:09.882Z,4.40
2018-12-25T08:32:35.438Z,4.40
2018-12-25T08:36:01.110Z,4.50
2018-12-25T08:39:26.861Z,4.50
2018-12-25T08:42:52.556Z,4.50
2018-12-25T08:46:18.196Z,4.50
2018-12-25T08:49:43.786Z,4.60
2018-12-25T08:53:09.342Z,4.70
2018-12-25T08:56:35.087Z,4.80
2018-12-25T09:00:01.079Z,4.80
2018-12-25T09:03:26.863Z,4.90
2018-12-25T09:06:52.444Z,4.90
2018-12-25T09:10:18.059Z,4.90
2018-12-25T09:13:43.636Z,5.00
2018-12-25T09:17:09.308Z,5.00
2018-12-25T09:20:35.179Z,5.00
2018-12-25T09:24:00.849Z,5.10
2018-12-25T09:27:26.456Z,5.10
2018-12-25T09:30:52.089Z,5.20
2018-12-25T09:34:17.679Z,5.20
2018-12-25T09:37:43.242Z,5.20
2018-12-25T09:41:08.786Z,5.20
2018-12-25T09:44:34.357Z,5.30
2018-12-25T09:47:59.946Z,5.30
2018-12-25T09:51:25.527Z,5.40
2018-12-25T09:54:51.520Z,5.40
2018-12-25T09:58:17.211Z,5.40
2018-12-25T10:01:43.147Z,5.50
2018-12-25T10:05:08.670Z,5.60
2018-12-25T10:08:34.240Z,5.70
2018-12-25T10:11:59.811Z,5.80
2018-12-25T10:15:25.406Z,5.80
2018-12-25T10:18:50.924Z,5.90
2018-12-25T10:22:16.499Z,6.00
2018-12-25T10:25:42.493Z,6.00
2018-12-25T10:29:08.322Z,6.00
2018-12-25T10:32:33.891Z,6.00
2018-12-25T10:35:59.491Z,6.10
2018-12-25T10:39:25.065Z,6.40
2018-12-25T10:42:50.564Z,6.60
2018-12-25T10:46:16.053Z,6.70
2018-12-25T10:49:41.613Z,6.90
2018-12-25T10:53:07.432Z,6.90
2018-12-25T10:56:32.980Z,6.60
2018-12-25T10:59:59.063Z,6.60
2018-12-25T11:03:24.694Z,6.50
2018-12-25T11:06:50.258Z,7.10
2018-12-25T11:10:15.873Z,8.50
2018-12-25T11:13:41.733Z,9.60
2018-12-25T11:17:07.271Z,10.00
2018-12-25T11:20:34.637Z,10.20
2018-12-25T11:24:00.159Z,9.60
2018-12-25T11:27:25.763Z,9.20
2018-12-25T11:30:51.293Z,8.90
2018-12-25T11:34:17.207Z,8.30
2018-12-25T11:37:42.748Z,8.00
2018-12-25T11:41:08.402Z,7.80
2018-12-25T11:44:33.961Z,7.40
2018-12-25T11:47:59.592Z,7.40
2018-12-25T11:51:25.434Z,7.40
2018-12-25T11:54:51.137Z,7.50
2018-12-25T11:58:16.774Z,7.60
2018-12-25T12:01:42.431Z,7.50
2018-12-25T12:05:08.000Z,7.30
2018-12-25T12:08:33.953Z,7.30
2018-12-25T12:11:59.563Z,7.40
2018-12-25T12:15:25.116Z,7.40
2018-12-25T12:18:50.687Z,7.60
2018-12-25T12:22:16.481Z,7.40
2018-12-25T12:25:42.040Z,7.60
2018-12-25T12:29:07.607Z,7.70
2018-12-25T12:32:33.443Z,7.60
2018-12-25T12:35:59.374Z,7.60
2018-12-25T12:39:25.241Z,7.50
2018-12-25T12:42:50.834Z,7.60
2018-12-25T12:46:16.463Z,7.50
2018-12-25T12:49:42.062Z,7.50
2018-12-25T12:53:07.647Z,7.50
2018-12-25T12:56:33.201Z,7.40
2018-12-25T12:59:58.879Z,7.20
2018-12-25T13:03:24.992Z,7.00
2018-12-25T13:06:50.621Z,6.90
2018-12-25T13:10:16.470Z,6.90
2018-12-25T13:13:41.984Z,6.90
2018-12-25T13:17:07.547Z,6.90
2018-12-25T13:20:33.461Z,7.00
2018-12-25T13:23:59.097Z,7.10
2018-12-25T13:27:24.812Z,6.90
2018-12-25T13:30:50.411Z,6.80
2018-12-25T13:34:15.985Z,6.70
2018-12-25T13:37:41.550Z,6.60
2018-12-25T13:41:07.117Z,6.70
2018-12-25T13:44:32.657Z,6.70
2018-12-25T13:47:58.213Z,6.80
2018-12-25T13:51:23.790Z,6.80
2018-12-25T13:54:49.604Z,6.90
2018-12-25T13:58:15.166Z,6.70
2018-12-25T14:01:41.021Z,6.70
2018-12-25T14:05:06.660Z,6.60
2018-12-25T14:08:32.201Z,6.60
2018-12-25T14:11:57.783Z,6.50
2018-12-25T14:15:24.674Z,6.50
2018-12-25T14:18:50.407Z,6.40
2018-12-25T14:22:15.974Z,6.50
2018-12-25T14:25:41.529Z,6.40
2018-12-25T14:29:07.123Z,6.40
2018-12-25T14:32:32.675Z,6.30
2018-12-25T14:35:58.312Z,6.20
2018-12-25T14:39:23.945Z,6.20
2018-12-25T14:42:49.811Z,6.20
2018-12-25T14:46:15.442Z,6.20
2018-12-25T14:49:41.019Z,6.20
2018-12-25T14:53:06.541Z,6.10
2018-12-25T14:56:32.123Z,6.10
2018-12-25T14:59:58.334Z,6.10
2018-12-25T15:03:23.982Z,6.00
2018-12-25T15:06:49.553Z,6.00
2018-12-25T15:10:15.097Z,5.90
2018-12-25T15:13:40.643Z,5.80
2018-12-25T15:17:06.168Z,5.80
2018-12-25T15:20:32.065Z,5.80
2018-12-25T15:23:57.907Z,5.70
2018-12-25T15:27:23.454Z,5.70
2018-12-25T15:30:48.978Z,5.70
2018-12-25T15:34:14.546Z,5.60
2018-12-25T15:37:40.123Z,5.60
2018-12-25T15:41:05.692Z,5.60
2018-12-25T15:44:31.285Z,5.50
2018-12-25T15:47:56.943Z,5.50
2018-12-25T15:51:22.496Z,5.50
2018-12-25T15:54:48.073Z,5.50
2018-12-25T15:58:17.627Z,5.50
2018-12-25T16:01:43.258Z,5.50
2018-12-25T16:05:08.921Z,5.50
2018-12-25T16:08:34.582Z,5.40
2018-12-25T16:12:00.221Z,5.40
2018-12-25T16:15:25.755Z,5.40
2018-12-25T16:18:51.573Z,5.40
2018-12-25T16:22:17.210Z,5.50
2018-12-25T16:25:42.793Z,5.40
2018-12-25T16:29:08.371Z,5.30
2018-12-25T16:32:33.962Z,5.30
2018-12-25T16:35:59.514Z,5.30
2018-12-25T16:39:25.426Z,5.30
2018-12-25T16:42:51.935Z,5.30
2018-12-25T16:46:17.464Z,5.30
2018-12-25T16:49:43.160Z,5.30
2018-12-25T16:53:08.753Z,5.20
2018-12-25T16:56:34.582Z,5.20
2018-12-25T17:00:00.397Z,5.20
2018-12-25T17:03:26.234Z,5.10
2018-12-25T17:06:52.364Z,5.10
2018-12-25T17:10:18.313Z,5.10
2018-12-25T17:13:43.920Z,5.00
2018-12-25T17:17:09.518Z,5.00
2018-12-25T17:20:35.106Z,5.00
2018-12-25T17:24:02.309Z,5.00
2018-12-25T17:27:28.052Z,5.00
2018-12-25T17:30:53.667Z,5.00
2018-12-25T17:34:19.302Z,4.90
2018-12-25T17:37:44.956Z,5.00
2018-12-25T17:41:10.543Z,5.00
2018-12-25T17:44:36.106Z,5.00
2018-12-25T17:48:01.702Z,5.00
2018-12-25T17:51:27.200Z,4.90
2018-12-25T17:54:52.789Z,4.80
2018-12-25T17:58:18.439Z,4.90
2018-12-25T18:01:44.567Z,4.90
2018-12-25T18:05:12.106Z,4.90
2018-12-25T18:08:37.406Z,4.80
2018-12-25T18:12:02.957Z,4.80
2018-12-25T18:15:28.499Z,4.80
2018-12-25T18:18:54.046Z,4.80
2018-12-25T18:22:19.874Z,4.70
2018-12-25T18:25:45.409Z,4.70
2018-12-25T18:29:10.977Z,4.70
2018-12-25T18:32:36.582Z,4.70
2018-12-25T18:36:02.470Z,4.70
2018-12-25T18:39:28.057Z,4.70
2018-12-25T18:42:53.854Z,4.70
2018-12-25T18:46:19.458Z,4.60
2018-12-25T18:49:45.016Z,4.60
2018-12-25T18:53:10.576Z,4.50
2018-12-25T18:56:36.092Z,4.50
2018-12-25T19:00:01.701Z,4.40
2018-12-25T19:03:27.278Z,4.30
2018-12-25T19:06:52.868Z,4.30
2018-12-25T19:10:18.465Z,4.30
2018-12-25T19:13:44.115Z,4.20
2018-12-25T19:17:09.670Z,4.00
2018-12-25T19:20:35.459Z,3.90
2018-12-25T19:24:02.533Z,3.80
2018-12-25T19:27:28.117Z,3.70
2018-12-25T19:30:53.675Z,3.60
2018-12-25T19:34:19.350Z,3.50
2018-12-25T19:37:44.931Z,3.40
2018-12-25T19:41:10.535Z,3.30
2018-12-25T19:44:36.040Z,3.20
2018-12-25T19:48:01.577Z,3.00
2018-12-25T19:51:27.402Z,2.90
2018-12-25T19:54:53.256Z,2.70
2018-12-25T19:58:18.835Z,2.60
2018-12-25T20:01:44.421Z,2.40
2018-12-25T20:05:42.176Z,2.50
2018-12-25T20:09:58.896Z,2.50
2018-12-25T20:14:26.789Z,2.40
2018-12-25T20:18:50.165Z,2.30
2018-12-25T20:23:12.061Z,2.20
2018-12-25T20:27:51.293Z,2.10
2018-12-25T20:32:31.326Z,2.10
2018-12-25T20:36:52.260Z,2.10
2018-12-25T20:41:28.493Z,2.00
2018-12-25T20:45:43.474Z,2.10
2018-12-25T20:49:53.695Z,2.20
2018-12-25T20:54:15.657Z,2.00
2018-12-25T20:58:45.145Z,1.90
2018-12-25T21:02:48.989Z,1.90
2018-12-25T21:07:04.084Z,1.80
2018-12-25T21:11:33.212Z,1.80
2018-12-25T21:16:08.433Z,1.80
2018-12-25T21:20:31.122Z,1.70
2018-12-25T21:24:49.790Z,1.70
2018-12-25T21:28:13.016Z,1.80
2018-12-25T21:31:38.601Z,1.70
2018-12-25T21:35:24.483Z,1.60
2018-12-25T21:38:49.988Z,1.50
2018-12-25T21:42:15.841Z,1.50
2018-12-25T21:45:41.438Z,1.40
2018-12-25T21:49:07.541Z,1.40
2018-12-25T21:52:33.708Z,1.40
2018-12-25T21:55:59.347Z,1.40
2018-12-25T21:59:25.359Z,1.40
2018-12-25T22:02:52.024Z,1.40
2018-12-25T22:06:17.578Z,1.40
2018-12-25T22:09:43.162Z,1.40
2018-12-25T22:13:08.821Z,1.40
2018-12-25T22:16:34.387Z,1.40
2018-12-25T22:20:00.612Z,1.40
2018-12-25T22:23:26.170Z,1.30
2018-12-25T22:26:51.720Z,1.20
2018-12-25T22:30:17.301Z,1.20
2018-12-25T22:33:42.927Z,1.20
2018-12-25T22:37:08.552Z,1.20
2018-12-25T22:40:34.149Z,1.20
2018-12-25T22:43:59.695Z,1.10
2018-12-25T22:47:25.563Z,1.10
2018-12-25T22:50:51.923Z,1.10
2018-12-25T22:54:17.681Z,1.10
2018-12-25T22:57:46.376Z,1.10
2018-12-25T23:01:11.855Z,1.10
2018-12-25T23:04:37.786Z,1.20
2018-12-25T23:08:03.359Z,1.10
2018-12-25T23:11:28.902Z,1.20
2018-12-25T23:14:54.717Z,1.10
2018-12-25T23:18:20.283Z,1.00
2018-12-25T23:21:45.837Z,1.00
2018-12-25T23:25:11.390Z,0.90
2018-12-25T23:28:37.289Z,0.90
2018-12-25T23:32:03.102Z,0.80
2018-12-25T23:35:28.718Z,0.80
2018-12-25T23:38:54.281Z,0.70
2018-12-25T23:42:19.858Z,0.70
2018-12-25T23:45:45.688Z,0.70
2018-12-25T23:49:11.266Z,0.80
2018-12-25T23:52:37.098Z,0.80
2018-12-25T23:56:02.678Z,0.80
2018-12-25T23:59:28.497Z,0.80
